sensor_id;sensor_type;location;lat;lon;timestamp;P1;durP1;ratioP1;P2;durP2;ratioP2
44366;SDS011;30086;57.660;12.000;2023-06-10T00:01:37;27.00;;;25.38;;
44366;SDS011;30086;57.660;12.000;2023-06-10T00:04:03;287.63;;;266.23;;
44366;SDS011;30086;57.660;12.000;2023-06-10T00:06:30;35.00;;;32.95;;
44366;SDS011;30086;57.660;12.000;2023-06-10T00:09:04;400.77;;;279.85;;
44366;SDS011;30086;57.660;12.000;2023-06-10T00:11:33;338.40;;;304.45;;
44366;SDS011;30086;57.660;12.000;2023-06-10T00:14:00;68.40;;;64.22;;
44366;SDS011;30086;57.660;12.000;2023-06-10T00:16:26;7.47;;;6.93;;
44366;SDS011;30086;57.660;12.000;2023-06-10T00:18:52;3.40;;;2.78;;
44366;SDS011;30086;57.660;12.000;2023-06-10T00:21:20;229.55;;;212.23;;
44366;SDS011;30086;57.660;12.000;2023-06-10T00:23:46;269.85;;;247.65;;
44366;SDS011;30086;57.660;12.000;2023-06-10T00:26:13;270.80;;;250.50;;
44366;SDS011;30086;57.660;12.000;2023-06-10T00:28:40;616.10;;;455.13;;
44366;SDS011;30086;57.660;12.000;2023-06-10T00:31:07;719.08;;;541.35;;
44366;SDS011;30086;57.660;12.000;2023-06-10T00:33:33;118.63;;;109.80;;
44366;SDS011;30086;57.660;12.000;2023-06-10T00:36:00;329.90;;;302.10;;
44366;SDS011;30086;57.660;12.000;2023-06-10T00:38:26;1.70;;;1.55;;
44366;SDS011;30086;57.660;12.000;2023-06-10T00:40:54;111.72;;;92.45;;
44366;SDS011;30086;57.660;12.000;2023-06-10T00:43:20;11.25;;;10.63;;
44366;SDS011;30086;57.660;12.000;2023-06-10T00:45:46;32.15;;;29.67;;
44366;SDS011;30086;57.660;12.000;2023-06-10T00:48:13;8.90;;;7.30;;
44366;SDS011;30086;57.660;12.000;2023-06-10T00:50:39;243.27;;;194.70;;
44366;SDS011;30086;57.660;12.000;2023-06-10T00:53:05;2.53;;;2.30;;
44366;SDS011;30086;57.660;12.000;2023-06-10T00:55:33;107.35;;;99.93;;
44366;SDS011;30086;57.660;12.000;2023-06-10T00:58:00;0.98;;;0.85;;
44366;SDS011;30086;57.660;12.000;2023-06-10T01:00:30;26.70;;;25.35;;
44366;SDS011;30086;57.660;12.000;2023-06-10T01:02:56;6.53;;;5.95;;
44366;SDS011;30086;57.660;12.000;2023-06-10T01:05:23;38.75;;;35.47;;
44366;SDS011;30086;57.660;12.000;2023-06-10T01:07:52;34.90;;;31.40;;
44366;SDS011;30086;57.660;12.000;2023-06-10T01:13:02;16.83;;;15.77;;
44366;SDS011;30086;57.660;12.000;2023-06-10T01:15:34;162.27;;;150.38;;
44366;SDS011;30086;57.660;12.000;2023-06-10T01:18:01;156.05;;;144.80;;
44366;SDS011;30086;57.660;12.000;2023-06-10T01:20:28;330.55;;;288.00;;
44366;SDS011;30086;57.660;12.000;2023-06-10T01:22:54;897.22;;;757.25;;
44366;SDS011;30086;57.660;12.000;2023-06-10T01:25:24;1489.18;;;999.90;;
44366;SDS011;30086;57.660;12.000;2023-06-10T01:28:31;844.95;;;479.85;;
44366;SDS011;30086;57.660;12.000;2023-06-10T01:33:23;526.20;;;422.55;;
44366;SDS011;30086;57.660;12.000;2023-06-10T01:35:51;424.70;;;388.65;;
44366;SDS011;30086;57.660;12.000;2023-06-10T01:38:19;1393.50;;;995.83;;
44366;SDS011;30086;57.660;12.000;2023-06-10T01:40:46;414.38;;;328.77;;
44366;SDS011;30086;57.660;12.000;2023-06-10T01:43:14;755.63;;;622.55;;
44366;SDS011;30086;57.660;12.000;2023-06-10T01:45:41;594.72;;;525.72;;
44366;SDS011;30086;57.660;12.000;2023-06-10T01:48:09;555.67;;;502.15;;
44366;SDS011;30086;57.660;12.000;2023-06-10T01:50:45;557.97;;;507.27;;
44366;SDS011;30086;57.660;12.000;2023-06-10T01:53:14;819.08;;;688.47;;
44366;SDS011;30086;57.660;12.000;2023-06-10T01:55:44;1133.30;;;938.85;;
44366;SDS011;30086;57.660;12.000;2023-06-10T01:58:16;1385.32;;;954.22;;
44366;SDS011;30086;57.660;12.000;2023-06-10T02:00:42;31.13;;;29.35;;
44366;SDS011;30086;57.660;12.000;2023-06-10T02:03:08;439.95;;;397.00;;
44366;SDS011;30086;57.660;12.000;2023-06-10T02:05:34;397.83;;;368.88;;
44366;SDS011;30086;57.660;12.000;2023-06-10T02:08:01;225.43;;;211.02;;
44366;SDS011;30086;57.660;12.000;2023-06-10T02:10:31;198.50;;;184.82;;
44366;SDS011;30086;57.660;12.000;2023-06-10T02:12:58;157.18;;;146.15;;
44366;SDS011;30086;57.660;12.000;2023-06-10T02:15:26;267.02;;;249.45;;
44366;SDS011;30086;57.660;12.000;2023-06-10T02:17:52;129.50;;;122.18;;
44366;SDS011;30086;57.660;12.000;2023-06-10T02:20:19;501.98;;;451.33;;
44366;SDS011;30086;57.660;12.000;2023-06-10T02:22:46;87.70;;;81.85;;
44366;SDS011;30086;57.660;12.000;2023-06-10T02:25:12;1190.65;;;876.40;;
44366;SDS011;30086;57.660;12.000;2023-06-10T02:27:40;55.67;;;52.30;;
44366;SDS011;30086;57.660;12.000;2023-06-10T02:30:06;75.22;;;70.80;;
44366;SDS011;30086;57.660;12.000;2023-06-10T02:32:34;326.30;;;296.83;;
44366;SDS011;30086;57.660;12.000;2023-06-10T02:35:00;190.55;;;178.77;;
44366;SDS011;30086;57.660;12.000;2023-06-10T02:37:28;519.80;;;479.52;;
44366;SDS011;30086;57.660;12.000;2023-06-10T02:39:55;648.78;;;554.10;;
44366;SDS011;30086;57.660;12.000;2023-06-10T02:42:21;122.50;;;115.38;;
44366;SDS011;30086;57.660;12.000;2023-06-10T02:44:47;1533.35;;;999.90;;
44366;SDS011;30086;57.660;12.000;2023-06-10T02:47:14;147.30;;;137.32;;
44366;SDS011;30086;57.660;12.000;2023-06-10T02:49:40;634.72;;;564.03;;
44366;SDS011;30086;57.660;12.000;2023-06-10T02:52:06;312.13;;;288.98;;
44366;SDS011;30086;57.660;12.000;2023-06-10T02:54:33;966.17;;;860.15;;
44366;SDS011;30086;57.660;12.000;2023-06-10T02:57:00;545.05;;;488.05;;
44366;SDS011;30086;57.660;12.000;2023-06-10T02:59:26;296.33;;;273.08;;
44366;SDS011;30086;57.660;12.000;2023-06-10T03:01:54;824.83;;;737.80;;
44366;SDS011;30086;57.660;12.000;2023-06-10T03:04:20;890.80;;;782.90;;
44366;SDS011;30086;57.660;12.000;2023-06-10T03:06:48;337.70;;;309.83;;
44366;SDS011;30086;57.660;12.000;2023-06-10T03:09:14;1021.38;;;838.25;;
44366;SDS011;30086;57.660;12.000;2023-06-10T03:11:40;1391.30;;;999.90;;
44366;SDS011;30086;57.660;12.000;2023-06-10T03:14:06;918.53;;;816.83;;
44366;SDS011;30086;57.660;12.000;2023-06-10T03:16:32;674.03;;;612.38;;
44366;SDS011;30086;57.660;12.000;2023-06-10T03:18:58;570.45;;;519.20;;
44366;SDS011;30086;57.660;12.000;2023-06-10T03:21:25;524.58;;;476.60;;
44366;SDS011;30086;57.660;12.000;2023-06-10T03:23:51;1046.82;;;886.03;;
44366;SDS011;30086;57.660;12.000;2023-06-10T03:26:18;952.70;;;848.72;;
44366;SDS011;30086;57.660;12.000;2023-06-10T03:28:46;939.70;;;824.20;;
44366;SDS011;30086;57.660;12.000;2023-06-10T03:31:13;1396.78;;;999.90;;
44366;SDS011;30086;57.660;12.000;2023-06-10T03:33:41;1503.88;;;999.90;;
44366;SDS011;30086;57.660;12.000;2023-06-10T03:36:07;1388.30;;;998.30;;
44366;SDS011;30086;57.660;12.000;2023-06-10T03:38:34;1502.00;;;999.90;;
44366;SDS011;30086;57.660;12.000;2023-06-10T03:41:03;893.92;;;628.58;;
44366;SDS011;30086;57.660;12.000;2023-06-10T03:43:29;1549.15;;;999.90;;
44366;SDS011;30086;57.660;12.000;2023-06-10T03:45:56;1448.38;;;999.90;;
44366;SDS011;30086;57.660;12.000;2023-06-10T03:48:22;1262.65;;;913.08;;
44366;SDS011;30086;57.660;12.000;2023-06-10T03:50:48;1232.68;;;999.90;;
44366;SDS011;30086;57.660;12.000;2023-06-10T03:53:16;1999.90;;;999.90;;
44366;SDS011;30086;57.660;12.000;2023-06-10T03:55:42;1637.38;;;999.90;;
44366;SDS011;30086;57.660;12.000;2023-06-10T03:58:08;1232.30;;;999.90;;
44366;SDS011;30086;57.660;12.000;2023-06-10T04:00:34;1595.15;;;895.55;;
44366;SDS011;30086;57.660;12.000;2023-06-10T04:03:06;1525.13;;;869.97;;
44366;SDS011;30086;57.660;12.000;2023-06-10T04:05:34;1340.95;;;875.45;;
44366;SDS011;30086;57.660;12.000;2023-06-10T04:08:00;1201.00;;;970.35;;
44366;SDS011;30086;57.660;12.000;2023-06-10T04:10:30;1313.75;;;704.50;;
44366;SDS011;30086;57.660;12.000;2023-06-10T04:12:56;1999.90;;;999.90;;
44366;SDS011;30086;57.660;12.000;2023-06-10T04:15:22;1239.22;;;946.75;;
44366;SDS011;30086;57.660;12.000;2023-06-10T04:17:49;1177.38;;;957.50;;
44366;SDS011;30086;57.660;12.000;2023-06-10T04:20:15;1116.72;;;743.05;;
44366;SDS011;30086;57.660;12.000;2023-06-10T04:22:42;1200.47;;;739.15;;
44366;SDS011;30086;57.660;12.000;2023-06-10T04:25:09;1408.93;;;991.45;;
44366;SDS011;30086;57.660;12.000;2023-06-10T04:27:35;1320.95;;;879.13;;
44366;SDS011;30086;57.660;12.000;2023-06-10T04:30:02;1241.13;;;683.83;;
44366;SDS011;30086;57.660;12.000;2023-06-10T04:32:29;1340.78;;;652.95;;
44366;SDS011;30086;57.660;12.000;2023-06-10T04:34:57;1263.75;;;908.15;;
44366;SDS011;30086;57.660;12.000;2023-06-10T04:37:23;1243.45;;;850.70;;
44366;SDS011;30086;57.660;12.000;2023-06-10T04:39:50;972.47;;;779.60;;
44366;SDS011;30086;57.660;12.000;2023-06-10T04:42:17;995.25;;;720.00;;
44366;SDS011;30086;57.660;12.000;2023-06-10T04:44:45;1567.63;;;787.80;;
44366;SDS011;30086;57.660;12.000;2023-06-10T04:47:12;1181.22;;;895.60;;
44366;SDS011;30086;57.660;12.000;2023-06-10T04:49:38;1353.30;;;964.67;;
44366;SDS011;30086;57.660;12.000;2023-06-10T04:52:05;1999.90;;;999.90;;
44366;SDS011;30086;57.660;12.000;2023-06-10T04:54:34;856.55;;;633.53;;
44366;SDS011;30086;57.660;12.000;2023-06-10T04:57:03;203.95;;;183.75;;
44366;SDS011;30086;57.660;12.000;2023-06-10T04:59:33;947.10;;;815.13;;
44366;SDS011;30086;57.660;12.000;2023-06-10T05:02:02;922.00;;;625.92;;
44366;SDS011;30086;57.660;12.000;2023-06-10T05:04:29;723.03;;;582.58;;
44366;SDS011;30086;57.660;12.000;2023-06-10T05:06:56;35.85;;;33.38;;
44366;SDS011;30086;57.660;12.000;2023-06-10T05:09:22;847.05;;;625.45;;
44366;SDS011;30086;57.660;12.000;2023-06-10T05:11:48;1047.20;;;668.00;;
44366;SDS011;30086;57.660;12.000;2023-06-10T05:14:16;106.63;;;90.43;;
44366;SDS011;30086;57.660;12.000;2023-06-10T05:16:44;717.42;;;561.83;;
44366;SDS011;30086;57.660;12.000;2023-06-10T05:19:10;584.35;;;524.47;;
44366;SDS011;30086;57.660;12.000;2023-06-10T05:21:36;49.70;;;46.47;;
44366;SDS011;30086;57.660;12.000;2023-06-10T05:24:03;1264.57;;;932.63;;
44366;SDS011;30086;57.660;12.000;2023-06-10T05:26:29;839.38;;;651.25;;
44366;SDS011;30086;57.660;12.000;2023-06-10T05:29:04;631.73;;;470.20;;
44366;SDS011;30086;57.660;12.000;2023-06-10T05:31:31;1162.85;;;868.08;;
44366;SDS011;30086;57.660;12.000;2023-06-10T05:33:57;862.60;;;734.63;;
44366;SDS011;30086;57.660;12.000;2023-06-10T05:36:23;528.63;;;438.42;;
44366;SDS011;30086;57.660;12.000;2023-06-10T05:38:52;514.58;;;463.02;;
44366;SDS011;30086;57.660;12.000;2023-06-10T05:41:18;81.97;;;76.65;;
44366;SDS011;30086;57.660;12.000;2023-06-10T05:43:45;853.75;;;643.33;;
44366;SDS011;30086;57.660;12.000;2023-06-10T05:46:12;1021.75;;;763.55;;
44366;SDS011;30086;57.660;12.000;2023-06-10T05:48:38;290.58;;;271.98;;
44366;SDS011;30086;57.660;12.000;2023-06-10T05:51:04;98.55;;;90.22;;
44366;SDS011;30086;57.660;12.000;2023-06-10T05:53:31;346.15;;;313.13;;
44366;SDS011;30086;57.660;12.000;2023-06-10T05:55:57;298.45;;;264.42;;
44366;SDS011;30086;57.660;12.000;2023-06-10T05:58:23;770.80;;;551.05;;
44366;SDS011;30086;57.660;12.000;2023-06-10T06:00:49;430.98;;;314.23;;
44366;SDS011;30086;57.660;12.000;2023-06-10T06:03:17;484.95;;;384.88;;
44366;SDS011;30086;57.660;12.000;2023-06-10T06:05:43;498.90;;;408.13;;
44366;SDS011;30086;57.660;12.000;2023-06-10T06:08:11;1097.53;;;668.22;;
44366;SDS011;30086;57.660;12.000;2023-06-10T06:10:38;593.40;;;541.05;;
44366;SDS011;30086;57.660;12.000;2023-06-10T06:13:04;1194.43;;;834.90;;
44366;SDS011;30086;57.660;12.000;2023-06-10T06:15:30;1194.57;;;908.58;;
44366;SDS011;30086;57.660;12.000;2023-06-10T06:17:58;946.72;;;552.78;;
44366;SDS011;30086;57.660;12.000;2023-06-10T06:20:24;431.55;;;390.30;;
44366;SDS011;30086;57.660;12.000;2023-06-10T06:22:50;1354.18;;;917.50;;
44366;SDS011;30086;57.660;12.000;2023-06-10T06:25:18;1405.40;;;998.70;;
44366;SDS011;30086;57.660;12.000;2023-06-10T06:27:44;866.83;;;613.53;;
44366;SDS011;30086;57.660;12.000;2023-06-10T06:30:10;782.03;;;632.05;;
44366;SDS011;30086;57.660;12.000;2023-06-10T06:32:36;678.28;;;606.78;;
44366;SDS011;30086;57.660;12.000;2023-06-10T06:35:03;1999.90;;;999.90;;
44366;SDS011;30086;57.660;12.000;2023-06-10T06:37:32;399.67;;;296.30;;
44366;SDS011;30086;57.660;12.000;2023-06-10T06:39:58;1671.13;;;999.90;;
44366;SDS011;30086;57.660;12.000;2023-06-10T06:42:28;1246.00;;;888.35;;
44366;SDS011;30086;57.660;12.000;2023-06-10T06:44:54;1238.97;;;659.42;;
44366;SDS011;30086;57.660;12.000;2023-06-10T06:47:20;1195.07;;;787.97;;
44366;SDS011;30086;57.660;12.000;2023-06-10T06:49:47;1211.82;;;930.13;;
44366;SDS011;30086;57.660;12.000;2023-06-10T06:52:17;1061.72;;;789.92;;
44366;SDS011;30086;57.660;12.000;2023-06-10T06:54:44;1694.38;;;890.53;;
44366;SDS011;30086;57.660;12.000;2023-06-10T06:57:11;1606.13;;;999.90;;
44366;SDS011;30086;57.660;12.000;2023-06-10T06:59:57;537.95;;;481.85;;
44366;SDS011;30086;57.660;12.000;2023-06-10T07:02:23;1177.07;;;713.03;;
44366;SDS011;30086;57.660;12.000;2023-06-10T07:04:50;336.10;;;284.55;;
44366;SDS011;30086;57.660;12.000;2023-06-10T07:07:20;648.17;;;525.20;;
44366;SDS011;30086;57.660;12.000;2023-06-10T07:09:47;376.00;;;347.92;;
44366;SDS011;30086;57.660;12.000;2023-06-10T07:12:13;736.33;;;569.65;;
44366;SDS011;30086;57.660;12.000;2023-06-10T07:14:44;1731.55;;;999.90;;
44366;SDS011;30086;57.660;12.000;2023-06-10T07:17:10;1494.38;;;969.42;;
44366;SDS011;30086;57.660;12.000;2023-06-10T07:19:37;1092.18;;;654.80;;
44366;SDS011;30086;57.660;12.000;2023-06-10T07:22:03;156.23;;;142.48;;
44366;SDS011;30086;57.660;12.000;2023-06-10T07:24:33;1223.65;;;669.95;;
44366;SDS011;30086;57.660;12.000;2023-06-10T07:27:00;69.00;;;62.28;;
44366;SDS011;30086;57.660;12.000;2023-06-10T07:29:28;372.30;;;308.58;;
44366;SDS011;30086;57.660;12.000;2023-06-10T07:31:54;330.85;;;301.02;;
44366;SDS011;30086;57.660;12.000;2023-06-10T07:34:20;917.03;;;699.30;;
44366;SDS011;30086;57.660;12.000;2023-06-10T07:36:47;1017.05;;;629.40;;
44366;SDS011;30086;57.660;12.000;2023-06-10T07:39:15;1081.07;;;594.13;;
44366;SDS011;30086;57.660;12.000;2023-06-10T07:41:43;151.10;;;136.25;;
44366;SDS011;30086;57.660;12.000;2023-06-10T07:44:09;1388.45;;;886.85;;
44366;SDS011;30086;57.660;12.000;2023-06-10T07:46:35;1158.50;;;729.38;;
44366;SDS011;30086;57.660;12.000;2023-06-10T07:49:07;863.03;;;505.75;;
44366;SDS011;30086;57.660;12.000;2023-06-10T07:51:34;6.93;;;6.57;;
44366;SDS011;30086;57.660;12.000;2023-06-10T07:54:05;951.00;;;518.78;;
44366;SDS011;30086;57.660;12.000;2023-06-10T07:56:34;1537.05;;;906.15;;
44366;SDS011;30086;57.660;12.000;2023-06-10T07:59:10;1.85;;;0.75;;
44366;SDS011;30086;57.660;12.000;2023-06-10T08:01:38;3.60;;;1.67;;
44366;SDS011;30086;57.660;12.000;2023-06-10T08:04:05;17.20;;;16.00;;
44366;SDS011;30086;57.660;12.000;2023-06-10T08:06:33;1.70;;;1.60;;
44366;SDS011;30086;57.660;12.000;2023-06-10T08:09:00;308.55;;;249.00;;
44366;SDS011;30086;57.660;12.000;2023-06-10T08:11:28;198.15;;;107.70;;
44366;SDS011;30086;57.660;12.000;2023-06-10T08:13:59;853.72;;;472.38;;
44366;SDS011;30086;57.660;12.000;2023-06-10T08:16:25;0.93;;;0.82;;
44366;SDS011;30086;57.660;12.000;2023-06-10T08:18:52;2.75;;;2.35;;
44366;SDS011;30086;57.660;12.000;2023-06-10T08:21:19;220.50;;;202.82;;
44366;SDS011;30086;57.660;12.000;2023-06-10T08:23:52;1.00;;;0.60;;
44366;SDS011;30086;57.660;12.000;2023-06-10T08:26:20;1.60;;;0.93;;
44366;SDS011;30086;57.660;12.000;2023-06-10T08:28:48;131.52;;;118.53;;
44366;SDS011;30086;57.660;12.000;2023-06-10T08:31:18;8.98;;;8.13;;
44366;SDS011;30086;57.660;12.000;2023-06-10T08:33:45;640.83;;;387.90;;
44366;SDS011;30086;57.660;12.000;2023-06-10T08:36:11;1.58;;;0.85;;
44366;SDS011;30086;57.660;12.000;2023-06-10T08:38:42;3.58;;;1.00;;
44366;SDS011;30086;57.660;12.000;2023-06-10T08:41:08;2.13;;;0.90;;
44366;SDS011;30086;57.660;12.000;2023-06-10T08:46:37;1.13;;;0.98;;
44366;SDS011;30086;57.660;12.000;2023-06-10T08:49:03;1.40;;;1.02;;
44366;SDS011;30086;57.660;12.000;2023-06-10T08:51:32;9.02;;;8.15;;
44366;SDS011;30086;57.660;12.000;2023-06-10T08:54:11;111.38;;;103.78;;
44366;SDS011;30086;57.660;12.000;2023-06-10T08:56:40;3.22;;;1.00;;
44366;SDS011;30086;57.660;12.000;2023-06-10T08:59:07;305.13;;;178.65;;
44366;SDS011;30086;57.660;12.000;2023-06-10T09:01:35;846.58;;;491.95;;
44366;SDS011;30086;57.660;12.000;2023-06-10T09:04:04;8.57;;;7.90;;
44366;SDS011;30086;57.660;12.000;2023-06-10T09:06:32;124.57;;;98.72;;
44366;SDS011;30086;57.660;12.000;2023-06-10T09:09:00;1.20;;;0.80;;
44366;SDS011;30086;57.660;12.000;2023-06-10T09:11:26;2.22;;;0.90;;
44366;SDS011;30086;57.660;12.000;2023-06-10T09:13:52;464.50;;;181.88;;
44366;SDS011;30086;57.660;12.000;2023-06-10T09:16:19;12.43;;;11.43;;
44366;SDS011;30086;57.660;12.000;2023-06-10T09:18:45;1.50;;;1.10;;
44366;SDS011;30086;57.660;12.000;2023-06-10T09:21:11;45.58;;;41.45;;
44366;SDS011;30086;57.660;12.000;2023-06-10T09:23:37;70.60;;;40.67;;
44366;SDS011;30086;57.660;12.000;2023-06-10T09:26:09;1116.40;;;489.88;;
44366;SDS011;30086;57.660;12.000;2023-06-10T09:28:42;4.63;;;4.32;;
44366;SDS011;30086;57.660;12.000;2023-06-10T09:31:29;2.75;;;0.95;;
44366;SDS011;30086;57.660;12.000;2023-06-10T09:34:05;226.35;;;203.00;;
44366;SDS011;30086;57.660;12.000;2023-06-10T09:36:32;1.27;;;0.80;;
44366;SDS011;30086;57.660;12.000;2023-06-10T09:39:02;4.32;;;4.03;;
44366;SDS011;30086;57.660;12.000;2023-06-10T09:41:34;1.77;;;1.20;;
44366;SDS011;30086;57.660;12.000;2023-06-10T09:44:00;1.90;;;1.00;;
44366;SDS011;30086;57.660;12.000;2023-06-10T09:46:30;462.70;;;197.52;;
44366;SDS011;30086;57.660;12.000;2023-06-10T09:49:07;888.88;;;391.60;;
44366;SDS011;30086;57.660;12.000;2023-06-10T09:51:33;190.55;;;111.38;;
44366;SDS011;30086;57.660;12.000;2023-06-10T09:54:02;1.63;;;1.20;;
44366;SDS011;30086;57.660;12.000;2023-06-10T09:56:37;2.13;;;1.27;;
44366;SDS011;30086;57.660;12.000;2023-06-10T09:59:05;30.27;;;10.93;;
44366;SDS011;30086;57.660;12.000;2023-06-10T10:01:31;1.42;;;1.17;;
44366;SDS011;30086;57.660;12.000;2023-06-10T10:03:58;2.05;;;1.27;;
44366;SDS011;30086;57.660;12.000;2023-06-10T10:06:25;12.52;;;10.32;;
44366;SDS011;30086;57.660;12.000;2023-06-10T10:08:52;1.40;;;1.30;;
44366;SDS011;30086;57.660;12.000;2023-06-10T10:11:18;4.43;;;1.17;;
44366;SDS011;30086;57.660;12.000;2023-06-10T10:13:47;1.67;;;1.25;;
44366;SDS011;30086;57.660;12.000;2023-06-10T10:16:20;2.45;;;1.13;;
44366;SDS011;30086;57.660;12.000;2023-06-10T10:21:13;103.25;;;65.50;;
44366;SDS011;30086;57.660;12.000;2023-06-10T10:26:36;3.13;;;1.35;;
44366;SDS011;30086;57.660;12.000;2023-06-10T10:29:05;3.03;;;1.38;;
44366;SDS011;30086;57.660;12.000;2023-06-10T10:31:34;1.40;;;1.30;;
44366;SDS011;30086;57.660;12.000;2023-06-10T10:34:02;7.05;;;1.92;;
44366;SDS011;30086;57.660;12.000;2023-06-10T10:36:30;1.30;;;1.13;;
44366;SDS011;30086;57.660;12.000;2023-06-10T10:38:59;2.38;;;1.27;;
44366;SDS011;30086;57.660;12.000;2023-06-10T10:41:28;1.48;;;1.17;;
44366;SDS011;30086;57.660;12.000;2023-06-10T10:43:56;2.10;;;1.30;;
44366;SDS011;30086;57.660;12.000;2023-06-10T10:46:22;1.33;;;1.23;;
44366;SDS011;30086;57.660;12.000;2023-06-10T10:48:51;2.33;;;1.10;;
44366;SDS011;30086;57.660;12.000;2023-06-10T10:51:18;1.42;;;1.20;;
44366;SDS011;30086;57.660;12.000;2023-06-10T10:53:44;5.05;;;1.27;;
44366;SDS011;30086;57.660;12.000;2023-06-10T10:56:30;1.58;;;1.20;;
44366;SDS011;30086;57.660;12.000;2023-06-10T10:59:02;3.17;;;1.20;;
44366;SDS011;30086;57.660;12.000;2023-06-10T11:01:39;3.67;;;1.30;;
44366;SDS011;30086;57.660;12.000;2023-06-10T11:04:06;1.90;;;1.10;;
44366;SDS011;30086;57.660;12.000;2023-06-10T11:06:34;2.00;;;1.80;;
44366;SDS011;30086;57.660;12.000;2023-06-10T11:09:01;2.55;;;1.48;;
44366;SDS011;30086;57.660;12.000;2023-06-10T11:11:49;1.52;;;1.42;;
44366;SDS011;30086;57.660;12.000;2023-06-10T11:14:16;3.35;;;1.30;;
44366;SDS011;30086;57.660;12.000;2023-06-10T11:16:53;2.08;;;1.40;;
44366;SDS011;30086;57.660;12.000;2023-06-10T11:19:32;3.20;;;3.00;;
44366;SDS011;30086;57.660;12.000;2023-06-10T11:21:59;1.23;;;1.00;;
44366;SDS011;30086;57.660;12.000;2023-06-10T11:24:25;194.40;;;174.07;;
44366;SDS011;30086;57.660;12.000;2023-06-10T11:26:52;9.43;;;8.55;;
44366;SDS011;30086;57.660;12.000;2023-06-10T11:29:19;1.77;;;1.23;;
44366;SDS011;30086;57.660;12.000;2023-06-10T11:31:50;1.40;;;1.20;;
44366;SDS011;30086;57.660;12.000;2023-06-10T11:36:48;2.53;;;1.20;;
44366;SDS011;30086;57.660;12.000;2023-06-10T11:39:16;14.80;;;13.57;;
44366;SDS011;30086;57.660;12.000;2023-06-10T11:41:43;3.60;;;1.38;;
44366;SDS011;30086;57.660;12.000;2023-06-10T11:44:10;1.20;;;1.02;;
44366;SDS011;30086;57.660;12.000;2023-06-10T11:46:37;2.55;;;1.33;;
44366;SDS011;30086;57.660;12.000;2023-06-10T11:49:04;2.00;;;1.38;;
44366;SDS011;30086;57.660;12.000;2023-06-10T11:51:34;3.28;;;1.88;;
44366;SDS011;30086;57.660;12.000;2023-06-10T11:54:09;1.70;;;1.30;;
44366;SDS011;30086;57.660;12.000;2023-06-10T11:56:43;2.22;;;1.50;;
44366;SDS011;30086;57.660;12.000;2023-06-10T11:59:10;2.00;;;1.40;;
44366;SDS011;30086;57.660;12.000;2023-06-10T12:01:37;1.67;;;1.38;;
44366;SDS011;30086;57.660;12.000;2023-06-10T12:04:29;2.33;;;1.40;;
44366;SDS011;30086;57.660;12.000;2023-06-10T12:07:04;3.22;;;1.48;;
44366;SDS011;30086;57.660;12.000;2023-06-10T12:10:00;1.67;;;1.58;;
44366;SDS011;30086;57.660;12.000;2023-06-10T12:12:28;2.97;;;1.13;;
44366;SDS011;30086;57.660;12.000;2023-06-10T12:14:56;1.88;;;1.30;;
44366;SDS011;30086;57.660;12.000;2023-06-10T12:17:37;4.50;;;1.40;;
44366;SDS011;30086;57.660;12.000;2023-06-10T12:20:07;5.13;;;3.35;;
44366;SDS011;30086;57.660;12.000;2023-06-10T12:25:04;2.63;;;1.30;;
44366;SDS011;30086;57.660;12.000;2023-06-10T12:27:31;4.53;;;2.30;;
44366;SDS011;30086;57.660;12.000;2023-06-10T12:29:58;96.25;;;27.30;;
44366;SDS011;30086;57.660;12.000;2023-06-10T12:32:36;1.70;;;1.30;;
44366;SDS011;30086;57.660;12.000;2023-06-10T12:37:29;1.52;;;1.40;;
44366;SDS011;30086;57.660;12.000;2023-06-10T12:39:58;2.60;;;1.40;;
44366;SDS011;30086;57.660;12.000;2023-06-10T12:42:26;2.08;;;1.35;;
44366;SDS011;30086;57.660;12.000;2023-06-10T12:44:55;6.15;;;1.30;;
44366;SDS011;30086;57.660;12.000;2023-06-10T12:47:34;1.40;;;1.30;;
44366;SDS011;30086;57.660;12.000;2023-06-10T12:50:02;1.30;;;1.10;;
44366;SDS011;30086;57.660;12.000;2023-06-10T12:52:29;7.95;;;7.28;;
44366;SDS011;30086;57.660;12.000;2023-06-10T12:54:55;1.80;;;1.60;;
44366;SDS011;30086;57.660;12.000;2023-06-10T12:57:22;1.33;;;1.23;;
44366;SDS011;30086;57.660;12.000;2023-06-10T12:59:48;3.70;;;1.27;;
44366;SDS011;30086;57.660;12.000;2023-06-10T13:02:25;9.70;;;9.00;;
44366;SDS011;30086;57.660;12.000;2023-06-10T13:04:51;2.00;;;1.45;;
44366;SDS011;30086;57.660;12.000;2023-06-10T13:07:20;2.38;;;1.55;;
44366;SDS011;30086;57.660;12.000;2023-06-10T13:09:48;16.38;;;10.60;;
44366;SDS011;30086;57.660;12.000;2023-06-10T13:12:14;1.52;;;1.23;;
44366;SDS011;30086;57.660;12.000;2023-06-10T13:14:43;1.88;;;1.40;;
44366;SDS011;30086;57.660;12.000;2023-06-10T13:17:09;1.52;;;1.42;;
44366;SDS011;30086;57.660;12.000;2023-06-10T13:19:35;1.55;;;1.45;;
44366;SDS011;30086;57.660;12.000;2023-06-10T13:22:01;3.15;;;2.28;;
44366;SDS011;30086;57.660;12.000;2023-06-10T13:24:27;1.73;;;1.42;;
44366;SDS011;30086;57.660;12.000;2023-06-10T13:26:53;2.17;;;1.40;;
44366;SDS011;30086;57.660;12.000;2023-06-10T13:29:21;28.98;;;26.58;;
44366;SDS011;30086;57.660;12.000;2023-06-10T13:31:48;1.75;;;1.48;;
44366;SDS011;30086;57.660;12.000;2023-06-10T13:34:14;2.00;;;1.40;;
44366;SDS011;30086;57.660;12.000;2023-06-10T13:36:40;3.20;;;1.40;;
44366;SDS011;30086;57.660;12.000;2023-06-10T13:39:09;2.25;;;1.50;;
44366;SDS011;30086;57.660;12.000;2023-06-10T13:41:36;1.73;;;1.50;;
44366;SDS011;30086;57.660;12.000;2023-06-10T13:44:02;2.53;;;1.45;;
44366;SDS011;30086;57.660;12.000;2023-06-10T13:46:30;1.50;;;1.30;;
44366;SDS011;30086;57.660;12.000;2023-06-10T13:48:56;2.10;;;1.15;;
44366;SDS011;30086;57.660;12.000;2023-06-10T13:51:22;4.68;;;4.18;;
44366;SDS011;30086;57.660;12.000;2023-06-10T13:53:48;1.60;;;1.40;;
44366;SDS011;30086;57.660;12.000;2023-06-10T13:56:16;4.20;;;1.60;;
44366;SDS011;30086;57.660;12.000;2023-06-10T13:58:42;2.40;;;1.63;;
44366;SDS011;30086;57.660;12.000;2023-06-10T14:01:08;3.08;;;1.48;;
44366;SDS011;30086;57.660;12.000;2023-06-10T14:03:34;6.55;;;1.45;;
44366;SDS011;30086;57.660;12.000;2023-06-10T14:06:01;1.73;;;1.40;;
44366;SDS011;30086;57.660;12.000;2023-06-10T14:08:28;3.00;;;1.60;;
44366;SDS011;30086;57.660;12.000;2023-06-10T14:10:54;92.45;;;84.20;;
44366;SDS011;30086;57.660;12.000;2023-06-10T14:13:20;3.50;;;1.90;;
44366;SDS011;30086;57.660;12.000;2023-06-10T14:15:47;2.95;;;1.92;;
44366;SDS011;30086;57.660;12.000;2023-06-10T14:18:13;1.83;;;1.73;;
44366;SDS011;30086;57.660;12.000;2023-06-10T14:20:39;13.18;;;10.18;;
44366;SDS011;30086;57.660;12.000;2023-06-10T14:23:06;2.35;;;1.75;;
44366;SDS011;30086;57.660;12.000;2023-06-10T14:25:32;301.80;;;147.40;;
44366;SDS011;30086;57.660;12.000;2023-06-10T14:27:58;2.70;;;1.95;;
44366;SDS011;30086;57.660;12.000;2023-06-10T14:30:25;3.70;;;1.65;;